»·PEaware :: USC243 KSBA-KSAN

USC243 :: KSBA-KSAN

FLIGHT INFORMATION

Flight Status: Arrived
Operator: Unknown
More flights by this operator :: More flights under this callsign
Pilot: Andy P. (22680)
Aircraft: GATES LEARJET LEARJET 35/36
(LJ35)
More flights by this aircraft type
Origin: KSBA Santa Barbara Mun
United States
Destination: KSAN San Diego Intl-Lindbergh
United States
More flights between these airports :: More routes between these airports
Route: KWANG VTU V208 SXC V27 REDIN V165 SARGS
File this flight plan on PilotEdge
Remarks:
Altitude:
(Current/Filed)
27,000ft
Speed:
(Current/Filed)
465kts
Departed: 28-Feb-19 08:06 PM
Arrived: 28-Feb-19 08:48 PM
Distance/Time
Traveled:
167nm/0:42
Distance/Time
To Go:
Arrived

Flight Plot

Page will automatically refresh every two minutes.


Map Options




Map Legend


Flown Route
Filed Route
Departure Airport
Arrival Airport
Navaid (VOR, NDB)
Fix

Horizontal Profiles

Position Reports

Time Latitude Longitude Heading Altitude Ground
Speed
28-Feb-19 19:37 34.432592 -119.834569 66 12ft 0kts
28-Feb-19 19:38 34.432592 -119.834569 66 13ft 0kts
28-Feb-19 19:39 34.432592 -119.834569 66 13ft 0kts
28-Feb-19 19:40 34.432592 -119.834569 66 13ft 0kts
28-Feb-19 19:41 34.432592 -119.834569 66 13ft 0kts
28-Feb-19 19:42 34.432592 -119.834569 66 13ft 0kts
28-Feb-19 19:44 34.432592 -119.834569 66 13ft 0kts
28-Feb-19 19:45 34.432592 -119.834569 66 13ft 0kts
28-Feb-19 19:46 34.432592 -119.834569 66 13ft 0kts
28-Feb-19 19:47 34.432592 -119.834569 66 13ft 0kts
28-Feb-19 19:48 34.432592 -119.834569 66 13ft 0kts
28-Feb-19 19:49 34.432592 -119.834569 66 13ft 0kts
28-Feb-19 19:50 34.432592 -119.834569 66 13ft 0kts
28-Feb-19 19:51 34.432592 -119.834569 66 13ft 0kts
28-Feb-19 19:52 34.432592 -119.834569 66 13ft 0kts
28-Feb-19 19:53 34.432592 -119.834569 66 13ft 0kts
28-Feb-19 19:54 34.432592 -119.834569 66 13ft 0kts
28-Feb-19 19:55 34.432592 -119.834569 66 13ft 0kts
28-Feb-19 19:56 34.432592 -119.834569 66 13ft 0kts
28-Feb-19 19:57 34.432593 -119.834568 66 13ft 0kts
28-Feb-19 19:58 34.432593 -119.834567 66 13ft 0kts
28-Feb-19 19:59 34.432594 -119.834565 66 13ft 0kts
28-Feb-19 20:00 34.432594 -119.834564 66 13ft 0kts
28-Feb-19 20:01 34.432595 -119.834562 66 13ft 0kts
28-Feb-19 20:01 34.432478 -119.834362 205 13ft 4kts
28-Feb-19 20:03 34.429004 -119.835017 143 13ft 8kts
28-Feb-19 20:04 34.428760 -119.834949 178 13ft 0kts
28-Feb-19 20:04 34.427957 -119.835129 239 13ft 16kts
28-Feb-19 20:05 34.421014 -119.877154 221 1359ft 205kts
28-Feb-19 20:07 34.379025 -119.837156 110 3120ft 212kts
28-Feb-19 20:08 34.363315 -119.759858 103 5485ft 227kts
28-Feb-19 20:08 34.350044 -119.697917 104 7154ft 233kts
28-Feb-19 20:09 34.332796 -119.620043 104 8006ft 263kts
28-Feb-19 20:11 34.308650 -119.515524 110 8722ft 305kts
28-Feb-19 20:11 34.278950 -119.442174 117 9901ft 290kts
28-Feb-19 20:12 34.242649 -119.354335 119 10974ft 333kts
28-Feb-19 20:13 34.194103 -119.237810 118 10985ft 390kts
28-Feb-19 20:14 34.146770 -119.125029 120 10990ft 394kts
28-Feb-19 20:15 34.064085 -119.045758 168 10991ft 384kts
28-Feb-19 20:16 33.958893 -119.038742 175 10995ft 384kts
28-Feb-19 20:17 33.852391 -119.023038 177 10994ft 385kts
28-Feb-19 20:18 33.757133 -118.966568 129 10995ft 403kts
28-Feb-19 20:19 33.687878 -118.861341 134 10998ft 402kts
28-Feb-19 20:20 33.616843 -118.763678 132 10998ft 403kts
28-Feb-19 20:21 33.544330 -118.660715 132 11001ft 404kts
28-Feb-19 20:22 33.471991 -118.557580 132 10999ft 404kts
28-Feb-19 20:23 33.402340 -118.458412 132 10999ft 404kts
28-Feb-19 20:24 33.365795 -118.333209 96 11006ft 409kts
28-Feb-19 20:25 33.347034 -118.199103 100 11008ft 409kts
28-Feb-19 20:26 33.328594 -118.064696 99 11009ft 409kts
28-Feb-19 20:27 33.310510 -117.930090 99 11002ft 409kts
28-Feb-19 20:28 33.291953 -117.795976 103 11001ft 409kts
28-Feb-19 20:29 33.226840 -117.690471 147 11000ft 400kts
28-Feb-19 20:30 33.143636 -117.601993 139 11003ft 402kts
28-Feb-19 20:31 33.062459 -117.515326 140 10969ft 349kts
28-Feb-19 20:32 32.995621 -117.445750 141 10969ft 304kts
28-Feb-19 20:33 32.928754 -117.377910 138 9239ft 322kts
28-Feb-19 20:34 32.871946 -117.315041 137 7188ft 272kts
28-Feb-19 20:35 32.827859 -117.248693 102 5240ft 243kts
28-Feb-19 20:36 32.813643 -117.176906 102 4991ft 203kts
28-Feb-19 20:37 32.801137 -117.114484 103 4988ft 189kts
28-Feb-19 20:38 32.789150 -117.055314 103 5002ft 187kts
28-Feb-19 20:39 32.776876 -116.994400 102 5003ft 190kts
28-Feb-19 20:40 32.747074 -116.948656 161 4997ft 186kts
28-Feb-19 20:41 32.699741 -116.941116 225 4982ft 174kts
28-Feb-19 20:42 32.685932 -116.988927 273 4794ft 149kts
28-Feb-19 20:43 32.695647 -117.035248 287 3105ft 134kts
28-Feb-19 20:44 32.705613 -117.074979 286 2081ft 125kts
28-Feb-19 20:45 32.715307 -117.115035 287 1172ft 126kts
28-Feb-19 20:46 32.725326 -117.155069 287 488ft 126kts
28-Feb-19 20:47 32.733537 -117.189442 286 18ft 30kts
28-Feb-19 20:48 32.734194 -117.187663 105 18ft 26kts
28-Feb-19 20:49 32.732615 -117.179910 35 18ft 16kts
28-Feb-19 20:50 32.733856 -117.178738 126 18ft 0kts

Navigation Log

Ident Type
Flight plan parsing failed, navigation log unavailable